createdAt,value
2022-10-11T00:00:53.500Z,9.20
2022-10-11T00:01:53.659Z,8.90
2022-10-11T00:02:53.960Z,9.20
2022-10-11T00:03:54.279Z,8.80
2022-10-11T00:04:54.450Z,9.10
2022-10-11T00:05:54.759Z,8.40
2022-10-11T00:06:54.977Z,8.60
2022-10-11T00:07:55.345Z,8.40
2022-10-11T00:08:55.659Z,8.80
2022-10-11T00:10:02.847Z,8.30
2022-10-11T00:10:56.230Z,8.20
2022-10-11T00:11:56.476Z,8.20
2022-10-11T00:12:56.787Z,8.40
2022-10-11T00:13:57.032Z,8.20
2022-10-11T00:14:57.336Z,8.00
2022-10-11T00:15:57.700Z,7.80
2022-10-11T00:16:58.069Z,8.30
2022-10-11T00:18:02.143Z,7.70
2022-10-11T00:18:59.623Z,7.50
2022-10-11T00:19:58.937Z,7.80
2022-10-11T00:20:59.222Z,7.70
2022-10-11T00:21:59.578Z,8.00
2022-10-11T00:22:59.867Z,7.70
2022-10-11T00:24:00.091Z,7.10
2022-10-11T00:25:00.390Z,7.60
2022-10-11T00:26:00.764Z,7.70
2022-10-11T00:27:01.030Z,7.60
2022-10-11T00:28:01.285Z,7.20
2022-10-11T00:29:01.589Z,7.20
2022-10-11T00:30:01.942Z,7.40
2022-10-11T00:31:02.465Z,7.80
2022-10-11T00:32:02.388Z,7.80
2022-10-11T00:33:02.708Z,7.80
2022-10-11T00:34:02.951Z,7.60
2022-10-11T00:35:03.271Z,7.60
2022-10-11T00:36:03.924Z,7.50
2022-10-11T00:37:03.891Z,8.00
2022-10-11T00:38:04.160Z,7.60
2022-10-11T00:39:04.413Z,8.00
2022-10-11T00:40:04.729Z,8.00
2022-10-11T00:41:05.018Z,8.20
2022-10-11T00:42:05.327Z,8.30
2022-10-11T00:43:05.582Z,8.10
2022-10-11T00:44:06.265Z,8.50
2022-10-11T00:45:06.162Z,8.10
2022-10-11T00:46:06.911Z,8.10
2022-10-11T00:47:06.665Z,8.40
2022-10-11T00:48:06.973Z,8.30
2022-10-11T00:49:07.186Z,8.40
2022-10-11T00:50:07.417Z,8.20
2022-10-11T00:51:08.251Z,8.40
2022-10-11T00:52:08.026Z,8.20
2022-10-11T00:53:08.409Z,8.50
2022-10-11T00:54:08.558Z,8.60
2022-10-11T00:55:08.872Z,9.20
2022-10-11T00:56:09.615Z,8.50
2022-10-11T00:57:09.666Z,9.50
2022-10-11T00:58:09.677Z,8.90
2022-10-11T00:59:10.091Z,8.80
2022-10-11T01:00:10.738Z,8.70
2022-10-11T01:01:10.700Z,8.60
2022-10-11T01:02:10.870Z,9.20
2022-10-11T01:03:11.181Z,9.30
2022-10-11T01:04:11.377Z,9.40
2022-10-11T01:05:28.710Z,9.80
2022-10-11T01:06:12.938Z,9.70
2022-10-11T01:07:12.224Z,9.40
2022-10-11T01:08:12.436Z,9.30
2022-10-11T01:09:12.803Z,9.80
2022-10-11T01:10:13.151Z,9.70
2022-10-11T01:11:13.491Z,9.70
2022-10-11T01:12:13.793Z,9.70
2022-10-11T01:13:14.103Z,9.70
2022-10-11T01:14:14.374Z,10.40
2022-10-11T01:15:14.786Z,9.60
2022-10-11T01:16:14.948Z,9.80
2022-10-11T01:17:15.205Z,9.60
2022-10-11T01:18:15.454Z,10.20
2022-10-11T01:19:15.800Z,10.00
2022-10-11T01:20:16.004Z,10.10
2022-10-11T01:21:16.306Z,10.70
2022-10-11T01:22:16.498Z,10.20
2022-10-11T01:23:16.786Z,10.50
2022-10-11T01:24:17.065Z,10.60
2022-10-11T01:25:17.397Z,10.80
2022-10-11T01:26:17.665Z,11.30
2022-10-11T01:27:17.996Z,10.70
2022-10-11T01:28:18.281Z,11.00
2022-10-11T01:29:18.480Z,10.90
2022-10-11T01:30:18.741Z,11.10
2022-10-11T01:31:19.091Z,11.10
2022-10-11T01:32:19.386Z,11.50
2022-10-11T01:33:19.605Z,11.10
2022-10-11T01:34:19.885Z,11.50
2022-10-11T01:35:20.205Z,11.20
2022-10-11T01:36:20.595Z,11.40
2022-10-11T01:37:20.763Z,11.00
2022-10-11T01:38:21.081Z,11.60
2022-10-11T01:39:21.418Z,11.80
2022-10-11T01:40:21.746Z,11.90
2022-10-11T01:41:21.997Z,11.60
2022-10-11T01:42:22.199Z,12.30
2022-10-11T01:43:22.425Z,11.90
2022-10-11T01:44:22.758Z,12.30
2022-10-11T01:45:23.018Z,12.10
2022-10-11T01:46:23.238Z,12.20
2022-10-11T01:47:23.535Z,12.70
2022-10-11T01:48:23.764Z,12.80
2022-10-11T01:49:24.014Z,13.10
2022-10-11T01:50:24.242Z,13.10
2022-10-11T01:51:24.580Z,13.20
2022-10-11T01:52:24.835Z,13.60
2022-10-11T01:53:25.189Z,14.00
2022-10-11T01:54:25.408Z,13.60
2022-10-11T01:55:25.708Z,14.00
2022-10-11T01:56:26.003Z,15.00
2022-10-11T01:57:26.316Z,14.60
2022-10-11T01:58:26.597Z,14.00
2022-10-11T01:59:26.958Z,14.50
2022-10-11T02:00:27.227Z,14.20
2022-10-11T02:01:27.589Z,14.70
2022-10-11T02:02:27.824Z,14.60
2022-10-11T02:03:28.071Z,15.10
2022-10-11T02:04:28.384Z,14.90
2022-10-11T02:05:28.665Z,15.30
2022-10-11T02:06:28.897Z,15.20
2022-10-11T02:07:29.109Z,15.30
2022-10-11T02:08:29.339Z,15.80
2022-10-11T02:09:29.635Z,15.50
2022-10-11T02:10:29.878Z,15.60
2022-10-11T02:11:30.206Z,15.90
2022-10-11T02:12:30.443Z,16.60
2022-10-11T02:13:30.751Z,16.50
2022-10-11T02:14:30.971Z,16.70
2022-10-11T02:15:31.204Z,17.80
2022-10-11T02:16:31.598Z,18.10
2022-10-11T02:17:31.944Z,18.30
2022-10-11T02:18:32.084Z,19.10
2022-10-11T02:19:32.413Z,18.70
2022-10-11T02:20:32.699Z,19.60
2022-10-11T02:21:32.958Z,19.50
2022-10-11T02:22:33.207Z,19.90
2022-10-11T02:23:33.475Z,20.80
2022-10-11T02:24:33.787Z,20.60
2022-10-11T02:25:34.020Z,21.20
2022-10-11T02:26:34.298Z,21.30
2022-10-11T02:27:34.636Z,20.00
2022-10-11T02:28:34.888Z,20.60
2022-10-11T02:29:35.207Z,20.80
2022-10-11T02:30:35.495Z,20.20
2022-10-11T02:31:35.705Z,20.40
2022-10-11T02:32:35.987Z,20.60
2022-10-11T02:33:36.205Z,21.00
2022-10-11T02:34:36.521Z,21.20
2022-10-11T02:35:36.845Z,20.70
2022-10-11T02:36:37.186Z,21.60
2022-10-11T02:37:37.469Z,21.80
2022-10-11T02:38:37.834Z,21.30
2022-10-11T02:39:38.154Z,21.60
2022-10-11T02:40:38.444Z,21.70
2022-10-11T02:41:38.702Z,21.20
2022-10-11T02:42:39.020Z,22.30
2022-10-11T02:43:39.304Z,21.90
2022-10-11T02:44:39.720Z,21.90
2022-10-11T02:45:39.897Z,22.60
2022-10-11T02:46:40.240Z,23.00
2022-10-11T02:47:40.566Z,21.60
2022-10-11T02:48:40.901Z,21.50
2022-10-11T02:49:41.246Z,22.00
2022-10-11T02:50:41.533Z,22.60
2022-10-11T02:51:41.744Z,21.90
2022-10-11T02:52:41.996Z,22.00
2022-10-11T02:53:42.603Z,22.50
2022-10-11T02:54:42.680Z,22.30
2022-10-11T02:55:42.947Z,21.70
2022-10-11T02:56:43.308Z,22.40
2022-10-11T02:57:43.577Z,22.40
2022-10-11T02:58:43.967Z,21.80
2022-10-11T02:59:44.229Z,22.50
2022-10-11T03:00:44.469Z,22.50
2022-10-11T03:01:45.205Z,23.40
2022-10-11T03:02:45.048Z,23.70
2022-10-11T03:03:45.359Z,23.00
2022-10-11T03:04:45.659Z,23.60
2022-10-11T03:05:46.019Z,24.50
2022-10-11T03:06:46.254Z,24.20
2022-10-11T03:07:46.469Z,23.80
2022-10-11T03:08:46.823Z,23.60
2022-10-11T03:09:47.078Z,24.60
2022-10-11T03:10:47.332Z,23.90
2022-10-11T03:11:47.583Z,24.10
2022-10-11T03:12:47.937Z,23.70
2022-10-11T03:13:48.171Z,24.20
2022-10-11T03:14:48.470Z,23.80
2022-10-11T03:15:49.442Z,23.40
2022-10-11T03:16:51.595Z,24.40
2022-10-11T03:17:49.382Z,23.70
2022-10-11T03:18:49.793Z,22.70
2022-10-11T03:19:50.422Z,22.80
2022-10-11T03:20:50.406Z,22.40
2022-10-11T03:21:50.725Z,23.10
2022-10-11T03:22:50.991Z,23.00
2022-10-11T03:23:51.142Z,23.70
2022-10-11T03:24:51.439Z,23.40
2022-10-11T03:25:51.849Z,23.10
2022-10-11T03:26:52.046Z,23.10
2022-10-11T03:27:52.349Z,22.70
2022-10-11T03:28:52.644Z,23.70
2022-10-11T03:29:52.805Z,23.60
2022-10-11T03:30:53.541Z,23.60
2022-10-11T03:31:53.425Z,23.50
2022-10-11T03:32:53.655Z,23.10
2022-10-11T03:33:54.001Z,23.30
2022-10-11T03:34:54.285Z,22.60
2022-10-11T03:35:54.620Z,22.40
2022-10-11T03:36:54.933Z,22.50
2022-10-11T03:37:55.126Z,22.50
2022-10-11T03:38:55.467Z,22.10
2022-10-11T03:39:55.662Z,22.50
2022-10-11T03:40:56.001Z,22.30
2022-10-11T03:41:56.305Z,21.60
2022-10-11T03:42:56.655Z,21.10
2022-10-11T03:43:56.893Z,20.60
2022-10-11T03:44:57.154Z,19.80
2022-10-11T03:45:57.471Z,18.40
2022-10-11T03:46:57.700Z,15.90
2022-10-11T03:47:58.017Z,15.30
2022-10-11T03:48:58.290Z,14.10
2022-10-11T03:49:58.614Z,11.80
2022-10-11T03:50:58.860Z,11.40
2022-10-11T03:51:59.144Z,10.20
2022-10-11T03:52:59.366Z,8.50
2022-10-11T03:53:59.596Z,8.50
2022-10-11T03:54:59.974Z,7.40
2022-10-11T03:56:03.401Z,7.30
2022-10-11T03:57:01.542Z,7.00
2022-10-11T03:58:00.907Z,7.00
2022-10-11T03:59:01.609Z,6.60
2022-10-11T04:00:01.458Z,6.30
2022-10-11T04:01:01.794Z,5.80
2022-10-11T04:02:02.140Z,5.70
2022-10-11T04:03:02.261Z,5.50
2022-10-11T04:04:02.548Z,4.90
2022-10-11T04:05:02.915Z,5.10
2022-10-11T04:06:03.728Z,4.70
2022-10-11T04:07:03.495Z,4.20
2022-10-11T04:08:06.346Z,4.20
2022-10-11T04:09:05.170Z,4.00
2022-10-11T04:10:04.475Z,4.40
2022-10-11T04:11:04.772Z,4.00
2022-10-11T04:12:05.009Z,4.00
2022-10-11T04:13:05.297Z,4.20
2022-10-11T04:14:05.570Z,4.10
2022-10-11T04:15:05.846Z,4.50
2022-10-11T04:16:06.602Z,4.50
2022-10-11T04:17:06.389Z,4.00
2022-10-11T04:18:06.640Z,4.00
2022-10-11T04:19:06.892Z,4.10
2022-10-11T04:20:07.217Z,4.00
2022-10-11T04:21:07.457Z,3.80
2022-10-11T04:22:07.679Z,3.90
2022-10-11T04:23:08.031Z,3.60
2022-10-11T04:24:08.343Z,3.80
2022-10-11T04:25:08.631Z,3.20
2022-10-11T04:26:09.175Z,3.20
2022-10-11T04:27:09.291Z,3.30
2022-10-11T04:28:09.689Z,3.30
2022-10-11T04:29:09.893Z,3.40
2022-10-11T04:30:10.326Z,3.00
2022-10-11T04:31:10.554Z,3.20
2022-10-11T04:32:10.856Z,3.00
2022-10-11T04:33:11.083Z,3.10
2022-10-11T04:34:11.421Z,3.10
2022-10-11T04:35:11.660Z,3.30
2022-10-11T04:36:12.076Z,3.00
2022-10-11T04:37:12.307Z,2.70
2022-10-11T04:38:12.563Z,2.80
2022-10-11T04:39:12.825Z,2.80
2022-10-11T04:40:13.134Z,2.50
2022-10-11T04:41:13.448Z,3.00
2022-10-11T04:42:13.850Z,2.60
2022-10-11T04:43:14.112Z,2.90
2022-10-11T04:44:14.406Z,3.80
2022-10-11T04:45:14.600Z,3.10
2022-10-11T04:46:15.420Z,2.90
2022-10-11T04:47:15.127Z,3.30
2022-10-11T04:48:15.375Z,3.10
2022-10-11T04:49:15.676Z,2.90
2022-10-11T04:50:15.992Z,3.40
2022-10-11T04:51:16.354Z,3.00
2022-10-11T04:52:16.575Z,2.60
2022-10-11T04:53:16.939Z,3.90
2022-10-11T04:54:17.306Z,2.90
2022-10-11T04:55:17.588Z,3.20
2022-10-11T04:56:17.770Z,3.40
2022-10-11T04:57:18.089Z,3.20
2022-10-11T04:58:18.478Z,3.00
2022-10-11T04:59:18.718Z,3.90
2022-10-11T05:00:19.024Z,2.90
2022-10-11T05:01:19.294Z,3.10
2022-10-11T05:02:19.796Z,2.90
2022-10-11T05:03:20.159Z,2.70
2022-10-11T05:04:20.265Z,2.90
2022-10-11T05:05:20.601Z,3.00
2022-10-11T05:06:20.909Z,3.00
2022-10-11T05:07:21.359Z,2.80
2022-10-11T05:08:21.429Z,2.70
2022-10-11T05:09:21.702Z,2.60
2022-10-11T05:10:21.988Z,2.80
2022-10-11T05:11:22.337Z,2.80
2022-10-11T05:12:22.664Z,2.90
2022-10-11T05:13:22.907Z,2.90
2022-10-11T05:14:23.354Z,2.70
2022-10-11T05:15:23.479Z,2.80
2022-10-11T05:16:23.819Z,2.70
2022-10-11T05:17:24.190Z,2.70
2022-10-11T05:18:25.362Z,2.90
2022-10-11T05:19:24.829Z,2.90
2022-10-11T05:20:25.083Z,2.90
2022-10-11T05:21:26.295Z,2.70
2022-10-11T05:22:25.748Z,3.00
2022-10-11T05:23:26.020Z,3.00
2022-10-11T05:24:26.214Z,2.90
2022-10-11T05:25:26.466Z,3.20
2022-10-11T05:26:26.896Z,2.90
2022-10-11T05:27:27.097Z,3.20
2022-10-11T05:28:27.344Z,3.40
2022-10-11T05:29:27.592Z,3.20
2022-10-11T05:30:27.817Z,3.10
2022-10-11T05:31:28.027Z,3.00
2022-10-11T05:32:32.239Z,3.10
2022-10-11T05:33:28.679Z,2.90
2022-10-11T05:34:28.852Z,3.40
2022-10-11T05:35:29.544Z,3.10
2022-10-11T05:36:29.491Z,3.20
2022-10-11T05:37:29.741Z,2.90
2022-10-11T05:38:33.857Z,3.00
2022-10-11T05:39:30.290Z,3.20
2022-10-11T05:40:30.539Z,3.50
2022-10-11T05:41:30.850Z,3.10
2022-10-11T05:42:31.139Z,11.00
2022-10-11T05:43:31.380Z,3.90
2022-10-11T05:44:31.609Z,3.10
2022-10-11T05:45:33.556Z,3.20
2022-10-11T05:46:32.100Z,3.10
2022-10-11T05:47:32.402Z,3.20
2022-10-11T05:48:32.663Z,3.60
2022-10-11T05:49:32.929Z,3.70
2022-10-11T05:50:33.157Z,3.20
2022-10-11T05:51:33.571Z,2.90
2022-10-11T05:52:33.776Z,3.60
2022-10-11T05:53:34.040Z,3.00
2022-10-11T05:54:34.406Z,3.40
2022-10-11T05:55:34.691Z,3.30
2022-10-11T05:56:34.919Z,3.10
2022-10-11T05:57:35.170Z,3.10
2022-10-11T05:58:35.437Z,3.40
2022-10-11T05:59:35.689Z,3.30
2022-10-11T06:00:35.980Z,2.80
2022-10-11T06:01:36.270Z,2.90
2022-10-11T06:02:36.581Z,2.80
2022-10-11T06:03:36.828Z,3.00
2022-10-11T06:04:37.098Z,3.00
2022-10-11T06:05:37.865Z,3.20
2022-10-11T06:06:37.654Z,3.50
2022-10-11T06:07:38.827Z,3.00
2022-10-11T06:08:38.211Z,2.90
2022-10-11T06:09:38.479Z,3.40
2022-10-11T06:10:38.751Z,3.20
2022-10-11T06:11:39.007Z,3.10
2022-10-11T06:12:39.272Z,3.00
2022-10-11T06:13:39.532Z,3.10
2022-10-11T06:14:39.827Z,3.40
2022-10-11T06:15:40.070Z,3.30
2022-10-11T06:16:40.319Z,2.90
2022-10-11T06:17:40.556Z,3.00
2022-10-11T06:18:40.860Z,3.10
2022-10-11T06:19:41.112Z,3.20
2022-10-11T06:20:41.340Z,3.00
2022-10-11T06:21:41.556Z,2.90
2022-10-11T06:22:41.833Z,2.90
2022-10-11T06:23:42.045Z,3.20
2022-10-11T06:24:42.333Z,3.00
2022-10-11T06:25:42.593Z,3.20
2022-10-11T06:26:42.915Z,3.30
2022-10-11T06:27:43.238Z,3.20
2022-10-11T06:28:43.449Z,3.50
2022-10-11T06:29:43.687Z,3.50
2022-10-11T06:30:44.010Z,3.60
2022-10-11T06:31:44.270Z,3.70
2022-10-11T06:32:44.469Z,3.50
2022-10-11T06:33:44.808Z,3.20
2022-10-11T06:34:45.013Z,3.50
2022-10-11T06:35:45.269Z,3.20
2022-10-11T06:36:45.576Z,3.80
2022-10-11T06:37:45.799Z,3.60
2022-10-11T06:38:46.058Z,3.20
2022-10-11T06:39:46.501Z,3.20
2022-10-11T06:40:46.557Z,3.20
2022-10-11T06:41:46.863Z,3.10
2022-10-11T06:42:47.110Z,3.00
2022-10-11T06:43:47.349Z,3.30
2022-10-11T06:44:47.629Z,3.20
2022-10-11T06:45:47.853Z,3.00
2022-10-11T06:46:48.145Z,3.30
2022-10-11T06:47:48.451Z,2.90
2022-10-11T06:48:48.689Z,3.00
2022-10-11T06:49:48.901Z,3.00
2022-10-11T06:50:59.491Z,3.10
2022-10-11T06:51:50.460Z,3.30
2022-10-11T06:52:49.713Z,2.80
2022-10-11T06:53:49.955Z,3.10
2022-10-11T06:54:50.304Z,3.20
2022-10-11T06:55:50.538Z,3.00
2022-10-11T06:56:50.823Z,3.30
2022-10-11T06:57:51.031Z,3.40
2022-10-11T06:58:51.312Z,3.50
2022-10-11T06:59:51.585Z,3.50
2022-10-11T07:00:51.906Z,3.40
2022-10-11T07:01:52.268Z,3.10
2022-10-11T07:02:52.502Z,2.90
2022-10-11T07:03:52.780Z,2.80
2022-10-11T07:04:53.001Z,3.00
2022-10-11T07:05:53.260Z,3.20
2022-10-11T07:06:53.567Z,3.20
2022-10-11T07:07:53.786Z,3.30
2022-10-11T07:08:54.062Z,2.90
2022-10-11T07:09:54.316Z,3.00
2022-10-11T07:10:54.580Z,3.10
2022-10-11T07:11:54.871Z,3.50
2022-10-11T07:12:55.133Z,3.30
2022-10-11T07:13:55.406Z,3.00
2022-10-11T07:14:55.684Z,3.30
2022-10-11T07:15:55.958Z,3.60
2022-10-11T07:16:56.196Z,2.90
2022-10-11T07:17:56.473Z,3.80
2022-10-11T07:19:00.570Z,3.60
2022-10-11T07:19:57.935Z,3.10
2022-10-11T07:20:57.374Z,3.60
2022-10-11T07:21:57.722Z,3.50
2022-10-11T07:22:57.940Z,3.20
2022-10-11T07:23:58.429Z,6.00
2022-10-11T07:24:58.518Z,3.40
2022-10-11T07:25:58.864Z,3.40
2022-10-11T07:26:59.127Z,3.90
2022-10-11T07:27:59.385Z,3.50
2022-10-11T07:28:59.682Z,3.20
2022-10-11T07:29:59.911Z,3.50
2022-10-11T07:31:00.197Z,3.30
2022-10-11T07:32:00.465Z,3.50
2022-10-11T07:33:00.832Z,3.40
2022-10-11T07:34:00.946Z,3.30
2022-10-11T07:35:01.180Z,3.20
2022-10-11T07:36:01.510Z,3.40
2022-10-11T07:37:01.794Z,3.60
2022-10-11T07:38:02.029Z,3.60
2022-10-11T07:39:02.307Z,5.30
2022-10-11T07:40:02.554Z,4.50
2022-10-11T07:41:02.814Z,4.00
2022-10-11T07:42:03.115Z,3.10
2022-10-11T07:43:03.385Z,3.40
2022-10-11T07:44:03.657Z,3.40
2022-10-11T07:45:03.967Z,4.10
2022-10-11T07:46:04.786Z,3.70
2022-10-11T07:47:07.784Z,3.30
2022-10-11T07:48:05.771Z,3.10
2022-10-11T07:49:05.096Z,2.90
2022-10-11T07:50:05.304Z,3.30
2022-10-11T07:51:05.583Z,3.40
2022-10-11T07:52:05.830Z,3.50
2022-10-11T07:53:06.079Z,3.60
2022-10-11T07:54:07.532Z,3.60
2022-10-11T07:55:06.674Z,3.60
2022-10-11T07:56:07.586Z,3.20
2022-10-11T07:57:07.286Z,3.60
2022-10-11T07:58:07.568Z,5.30
2022-10-11T07:59:07.850Z,3.80
2022-10-11T08:00:08.083Z,3.70
2022-10-11T08:01:08.432Z,3.50
2022-10-11T08:02:08.739Z,3.20
2022-10-11T08:03:08.992Z,3.60
2022-10-11T08:04:09.289Z,3.60
2022-10-11T08:05:09.512Z,3.20
2022-10-11T08:06:10.264Z,3.90
2022-10-11T08:07:10.116Z,3.20
2022-10-11T08:08:10.343Z,3.20
2022-10-11T08:09:10.611Z,3.60
2022-10-11T08:10:10.885Z,3.50
2022-10-11T08:11:11.152Z,3.20
2022-10-11T08:12:11.438Z,2.80
2022-10-11T08:13:11.715Z,3.70
2022-10-11T08:14:12.019Z,3.30
2022-10-11T08:15:12.221Z,5.50
2022-10-11T08:16:12.455Z,4.20
2022-10-11T08:17:12.749Z,3.60
2022-10-11T08:18:13.015Z,3.30
2022-10-11T08:19:13.236Z,3.10
2022-10-11T08:20:13.531Z,3.00
2022-10-11T08:21:13.825Z,3.20
2022-10-11T08:22:14.131Z,3.50
2022-10-11T08:23:14.375Z,3.70
2022-10-11T08:24:14.653Z,5.40
2022-10-11T08:25:14.906Z,4.10
2022-10-11T08:26:15.195Z,4.30
2022-10-11T08:27:15.430Z,3.80
2022-10-11T08:28:15.863Z,3.70
2022-10-11T08:29:15.948Z,3.40
2022-10-11T08:30:16.196Z,3.70
2022-10-11T08:31:16.530Z,3.80
2022-10-11T08:32:16.754Z,3.60
2022-10-11T08:33:17.018Z,3.60
2022-10-11T08:34:17.256Z,4.50
2022-10-11T08:35:17.654Z,4.10
2022-10-11T08:36:17.769Z,3.30
2022-10-11T08:37:18.007Z,3.90
2022-10-11T08:38:18.268Z,3.70
2022-10-11T08:39:18.573Z,3.60
2022-10-11T08:40:18.859Z,3.30
2022-10-11T08:41:19.123Z,3.60
2022-10-11T08:42:19.407Z,3.90
2022-10-11T08:43:19.659Z,3.90
2022-10-11T08:44:19.874Z,4.40
2022-10-11T08:45:20.111Z,4.70
2022-10-11T08:46:20.432Z,4.20
2022-10-11T08:47:20.741Z,3.90
2022-10-11T08:48:20.945Z,4.50
2022-10-11T08:49:21.240Z,4.80
2022-10-11T08:50:21.596Z,4.10
2022-10-11T08:51:21.799Z,4.10
2022-10-11T08:52:22.075Z,3.60
2022-10-11T08:53:22.418Z,3.60
2022-10-11T08:54:22.595Z,3.80
2022-10-11T08:55:22.875Z,4.20
2022-10-11T08:56:23.125Z,3.70
2022-10-11T08:57:23.423Z,3.60
2022-10-11T08:58:23.726Z,3.60
2022-10-11T08:59:23.963Z,3.50
2022-10-11T09:00:24.192Z,3.60
2022-10-11T09:01:24.540Z,3.90
2022-10-11T09:02:24.803Z,3.80
2022-10-11T09:03:25.013Z,3.50
2022-10-11T09:04:25.300Z,3.60
2022-10-11T09:05:25.550Z,3.90
2022-10-11T09:06:25.868Z,4.10
2022-10-11T09:07:26.936Z,3.40
2022-10-11T09:08:26.312Z,4.20
2022-10-11T09:09:26.596Z,3.60
2022-10-11T09:10:26.826Z,4.60
2022-10-11T09:11:27.263Z,4.10
2022-10-11T09:12:31.943Z,4.00
2022-10-11T09:13:28.625Z,3.90
2022-10-11T09:14:27.912Z,3.80
2022-10-11T09:15:28.183Z,3.70
2022-10-11T09:16:28.493Z,3.30
2022-10-11T09:17:28.698Z,3.60
2022-10-11T09:18:29.027Z,3.60
2022-10-11T09:19:29.317Z,3.80
2022-10-11T09:20:29.540Z,3.40
2022-10-11T09:21:29.947Z,3.70
2022-10-11T09:22:30.826Z,3.60
2022-10-11T09:23:30.436Z,3.60
2022-10-11T09:24:30.682Z,4.00
2022-10-11T09:25:30.946Z,3.70
2022-10-11T09:26:31.257Z,3.60
2022-10-11T09:27:50.331Z,4.30
2022-10-11T09:28:32.901Z,4.00
2022-10-11T09:29:32.139Z,4.00
2022-10-11T09:30:32.357Z,3.60
2022-10-11T09:31:32.577Z,3.60
2022-10-11T09:32:32.828Z,3.60
2022-10-11T09:33:33.096Z,3.50
2022-10-11T09:34:33.826Z,3.60
2022-10-11T09:35:33.684Z,3.50
2022-10-11T09:36:33.959Z,3.30
2022-10-11T09:37:34.211Z,3.30
2022-10-11T09:38:34.450Z,3.20
2022-10-11T09:39:34.701Z,3.20
2022-10-11T09:40:35.003Z,3.40
2022-10-11T09:41:35.219Z,3.70
2022-10-11T09:42:35.471Z,3.50
2022-10-11T09:43:35.773Z,3.50
2022-10-11T09:44:35.965Z,3.70
2022-10-11T09:45:36.535Z,3.50
2022-10-11T09:46:36.449Z,3.50
2022-10-11T09:47:36.680Z,3.30
2022-10-11T09:48:37.071Z,3.10
2022-10-11T09:49:37.185Z,3.30
2022-10-11T09:50:37.443Z,3.30
2022-10-11T09:51:37.711Z,3.60
2022-10-11T09:52:37.984Z,3.20
2022-10-11T09:53:38.277Z,3.70
2022-10-11T09:54:38.545Z,3.70
2022-10-11T09:55:38.767Z,3.10
2022-10-11T09:56:39.017Z,3.00
2022-10-11T09:57:39.261Z,3.20
2022-10-11T09:58:39.564Z,3.70
2022-10-11T09:59:39.813Z,3.40
2022-10-11T10:00:40.049Z,3.10
2022-10-11T10:01:40.347Z,3.40
2022-10-11T10:02:40.600Z,4.30
2022-10-11T10:03:40.898Z,3.60
2022-10-11T10:04:41.166Z,6.00
2022-10-11T10:05:41.394Z,4.40
2022-10-11T10:06:41.659Z,9.60
2022-10-11T10:07:41.884Z,4.10
2022-10-11T10:08:42.136Z,3.80
2022-10-11T10:09:42.871Z,9.00
2022-10-11T10:10:42.704Z,3.60
2022-10-11T10:11:42.930Z,3.50
2022-10-11T10:12:43.234Z,3.60
2022-10-11T10:13:43.468Z,3.40
2022-10-11T10:14:43.709Z,3.80
2022-10-11T10:15:44.002Z,3.60
2022-10-11T10:16:44.358Z,3.60
2022-10-11T10:17:44.607Z,3.40
2022-10-11T10:18:44.930Z,3.60
2022-10-11T10:19:45.492Z,4.00
2022-10-11T10:20:45.423Z,3.40
2022-10-11T10:21:45.713Z,3.30
2022-10-11T10:22:46.034Z,3.60
2022-10-11T10:23:46.259Z,3.40
2022-10-11T10:24:46.531Z,3.80
2022-10-11T10:25:46.821Z,3.20
2022-10-11T10:26:47.155Z,3.40
2022-10-11T10:27:47.369Z,3.40
2022-10-11T10:28:47.792Z,3.20
2022-10-11T10:29:48.024Z,3.00
2022-10-11T10:30:48.160Z,3.60
2022-10-11T10:32:12.864Z,3.30
2022-10-11T10:32:49.775Z,3.30
2022-10-11T10:33:49.044Z,3.30
2022-10-11T10:34:49.321Z,4.40
2022-10-11T10:35:49.697Z,4.00
2022-10-11T10:36:49.902Z,3.60
2022-10-11T10:37:50.257Z,3.80
2022-10-11T10:38:52.277Z,3.10
2022-10-11T10:39:50.819Z,4.00
2022-10-11T10:40:51.039Z,3.60
2022-10-11T10:41:51.330Z,4.20
2022-10-11T10:42:51.632Z,4.70
2022-10-11T10:43:51.919Z,3.80
2022-10-11T10:44:52.153Z,3.90
2022-10-11T10:45:52.414Z,3.60
2022-10-11T10:46:52.692Z,3.50
2022-10-11T10:47:53.022Z,3.20
2022-10-11T10:49:55.177Z,3.80
2022-10-11T10:50:53.726Z,4.30
2022-10-11T10:51:53.989Z,3.90
2022-10-11T10:52:54.240Z,4.10
2022-10-11T10:53:55.413Z,3.60
2022-10-11T10:54:54.805Z,3.70
2022-10-11T10:55:55.059Z,4.40
2022-10-11T10:56:55.335Z,4.10
2022-10-11T10:57:55.620Z,3.70
2022-10-11T10:58:55.950Z,3.50
2022-10-11T10:59:56.198Z,3.80
2022-10-11T11:00:56.465Z,3.50
2022-10-11T11:01:56.748Z,3.50
2022-10-11T11:02:57.169Z,3.70
2022-10-11T11:03:57.317Z,3.90
2022-10-11T11:05:57.878Z,3.80
2022-10-11T11:06:58.137Z,9.00
2022-10-11T11:07:58.478Z,3.60
2022-10-11T11:08:58.694Z,3.50
2022-10-11T11:09:58.939Z,3.70
2022-10-11T11:10:59.190Z,3.70
2022-10-11T11:11:59.467Z,3.80
2022-10-11T11:12:59.738Z,3.70
2022-10-11T11:14:00.025Z,3.50
2022-10-11T11:15:00.308Z,3.50
2022-10-11T11:16:00.569Z,3.00
2022-10-11T11:17:00.877Z,2.80
2022-10-11T11:18:01.153Z,3.10
2022-10-11T11:19:01.861Z,3.70
2022-10-11T11:20:01.597Z,3.20
2022-10-11T11:21:01.896Z,3.40
2022-10-11T11:22:02.162Z,3.20
2022-10-11T11:23:02.438Z,3.20
2022-10-11T11:24:02.748Z,3.10
2022-10-11T11:25:02.975Z,3.10
2022-10-11T11:26:03.578Z,3.50
2022-10-11T11:27:04.162Z,3.50
2022-10-11T11:28:03.784Z,3.80
2022-10-11T11:29:04.082Z,3.10
2022-10-11T11:30:04.347Z,7.20
2022-10-11T11:31:04.988Z,6.50
2022-10-11T11:32:04.939Z,3.30
2022-10-11T11:33:05.194Z,3.20
2022-10-11T11:34:05.455Z,3.10
2022-10-11T11:35:05.731Z,3.00
2022-10-11T11:36:07.270Z,3.00
2022-10-11T11:37:06.355Z,2.80
2022-10-11T11:38:06.774Z,3.20
2022-10-11T11:39:07.063Z,3.20
2022-10-11T11:40:07.261Z,3.10
2022-10-11T11:41:08.063Z,2.90
2022-10-11T11:42:07.865Z,3.10
2022-10-11T11:43:08.166Z,3.40
2022-10-11T11:44:08.394Z,3.30
2022-10-11T11:45:08.796Z,3.50
2022-10-11T11:46:08.915Z,3.10
2022-10-11T11:47:09.179Z,3.00
2022-10-11T11:48:09.518Z,3.00
2022-10-11T11:49:12.965Z,3.40
2022-10-11T11:50:10.111Z,3.30
2022-10-11T11:51:10.406Z,3.40
2022-10-11T11:52:10.653Z,3.80
2022-10-11T11:53:10.918Z,5.00
2022-10-11T11:54:11.186Z,3.90
2022-10-11T11:55:12.002Z,4.00
2022-10-11T11:56:11.704Z,3.30
2022-10-11T11:57:11.973Z,3.20
2022-10-11T11:58:12.222Z,3.00
2022-10-11T11:59:12.466Z,3.80
2022-10-11T12:00:12.794Z,4.00
2022-10-11T12:01:13.150Z,3.80
2022-10-11T12:02:13.403Z,3.80
2022-10-11T12:03:13.713Z,3.10
2022-10-11T12:04:14.050Z,3.20
2022-10-11T12:05:14.219Z,3.30
2022-10-11T12:06:14.980Z,3.40
2022-10-11T12:07:17.071Z,3.30
2022-10-11T12:08:15.118Z,3.30
2022-10-11T12:09:15.438Z,3.50
2022-10-11T12:10:15.691Z,3.50
2022-10-11T12:11:15.944Z,3.60
2022-10-11T12:12:16.246Z,3.90
2022-10-11T12:13:16.509Z,3.30
2022-10-11T12:14:16.762Z,3.60
2022-10-11T12:15:17.063Z,3.10
2022-10-11T12:16:17.369Z,3.20
2022-10-11T12:17:17.701Z,3.30
2022-10-11T12:18:17.936Z,3.60
2022-10-11T12:19:18.227Z,3.50
2022-10-11T12:20:18.570Z,4.10
2022-10-11T12:21:18.782Z,3.90
2022-10-11T12:22:19.067Z,3.70
2022-10-11T12:23:20.164Z,3.80
2022-10-11T12:24:19.594Z,3.60
2022-10-11T12:25:19.871Z,3.70
2022-10-11T12:26:20.172Z,4.30
2022-10-11T12:27:20.446Z,3.90
2022-10-11T12:28:20.732Z,3.40
2022-10-11T12:29:25.899Z,3.30
2022-10-11T12:30:22.258Z,3.20
2022-10-11T12:31:21.552Z,3.40
2022-10-11T12:32:21.873Z,3.70
2022-10-11T12:33:22.073Z,3.50
2022-10-11T12:34:22.336Z,3.90
2022-10-11T12:35:22.584Z,4.30
2022-10-11T12:36:22.920Z,4.00
2022-10-11T12:37:23.200Z,3.90
2022-10-11T12:38:23.395Z,4.10
2022-10-11T12:39:23.679Z,4.00
2022-10-11T12:40:23.920Z,3.70
2022-10-11T12:41:24.231Z,3.90
2022-10-11T12:42:24.592Z,3.20
2022-10-11T12:43:24.735Z,3.60
2022-10-11T12:44:24.952Z,3.20
2022-10-11T12:45:25.243Z,3.20
2022-10-11T12:46:25.500Z,3.40
2022-10-11T12:47:25.829Z,3.70
2022-10-11T12:48:30.223Z,3.40
2022-10-11T12:49:27.356Z,2.70
2022-10-11T12:50:27.533Z,3.10
2022-10-11T12:51:26.942Z,3.20
2022-10-11T12:52:27.248Z,3.10
2022-10-11T12:53:27.497Z,2.80
2022-10-11T12:54:31.060Z,2.60
2022-10-11T12:55:29.069Z,2.90
2022-10-11T12:56:28.830Z,2.70
2022-10-11T12:57:28.673Z,3.00
2022-10-11T12:58:28.957Z,3.10
2022-10-11T12:59:29.200Z,3.00
2022-10-11T13:00:29.489Z,3.20
2022-10-11T13:01:29.783Z,2.80
2022-10-11T13:02:30.049Z,3.20
2022-10-11T13:03:32.621Z,3.40
2022-10-11T13:04:30.541Z,4.10
2022-10-11T13:05:30.814Z,5.70
2022-10-11T13:06:31.054Z,4.60
2022-10-11T13:07:31.373Z,3.90
2022-10-11T13:08:31.665Z,3.60
2022-10-11T13:09:31.946Z,3.50
2022-10-11T13:10:32.165Z,3.00
2022-10-11T13:11:32.561Z,3.20
2022-10-11T13:12:32.808Z,3.30
2022-10-11T13:13:33.061Z,3.10
2022-10-11T13:14:33.350Z,3.20
2022-10-11T13:15:33.616Z,3.00
2022-10-11T13:16:33.886Z,2.90
2022-10-11T13:17:38.204Z,3.00
2022-10-11T13:18:34.468Z,3.00
2022-10-11T13:19:34.825Z,2.60